Archival Weather

South Haven Area Rgnl

South Haven, Michigan (KLWA)

Report from: Saturday, September 30, 2023 8:35 PM EDT
Current time: Tuesday, February 27, 2024 6:28 AM EST

Current weather – Weather history – Daily summaries
Weather forecast

Temperature18.0°C (64.4°F)
Dew point16.4°C (61.5°F)
Winds Calm
Visibility10 mi. (16.1 km)
Clouds Sky clear
Altimeter30.21 in.Hg (1023 mB)
Relative humidity90 %
Density altitude279 ft. (85 m)
Remarks Fully automated report
Automated weather observing station with precipitation discriminator
Flight conditions Visual Meteorological Conditions
Raw dataKLWA 010035Z AUTO 00000KT 10SM CLR 18/16 A3021 RMK AO2 T01800164
An error has occurred. This application may no longer respond until reloaded. Reload 🗙